»·PEaware :: N22G KPDX-KSEA

N22G :: KPDX-KSEA

FLIGHT INFORMATION

Flight Status: Arrived
Operator: Privately registered:
United States
More flights under this callsign
Pilot: Ryan L. (28399)
Aircraft: CESSNA 510 CITATION MUSTANG
(C510)
More flights by this aircraft type
Origin: KPDX Portland Intl
United States
Destination: KSEA Seattle-Tacoma Intl
United States
More flights between these airports :: More routes between these airports
Route: +PTLD1 BTG COUGA KRIEG HAWKZ7
File this flight plan on PilotEdge
Remarks:
Altitude:
(Current/Filed)
20,000ft
Speed:
(Current/Filed)
380kts
Departed: 28-Jun-20 08:55 AM
Arrived: 28-Jun-20 09:33 AM
Distance/Time
Traveled:
112nm/0:37
Distance/Time
To Go:
Arrived

Flight Plot

Page will automatically refresh every two minutes.


Map Options




Map Legend


Flown Route
Filed Route
Departure Airport
Arrival Airport
Navaid (VOR, NDB)
Fix

Horizontal Profiles

Position Reports

Time Latitude Longitude Heading Altitude Ground
Speed
28-Jun-20 08:32 45.587235 -122.582947 211 27ft 0kts
28-Jun-20 08:33 45.587235 -122.582947 211 27ft 0kts
28-Jun-20 08:34 45.587235 -122.582947 211 27ft 0kts
28-Jun-20 08:35 45.587235 -122.582947 211 27ft 0kts
28-Jun-20 08:36 45.587235 -122.582947 211 27ft 0kts
28-Jun-20 08:37 45.587235 -122.582947 211 27ft 0kts
28-Jun-20 08:38 45.587235 -122.582947 211 27ft 0kts
28-Jun-20 08:39 45.587235 -122.582947 211 27ft 0kts
28-Jun-20 08:40 45.587235 -122.582947 211 27ft 0kts
28-Jun-20 08:41 45.587235 -122.582947 211 27ft 0kts
28-Jun-20 08:42 45.587235 -122.582947 211 27ft 0kts
28-Jun-20 08:43 45.587235 -122.582947 211 27ft 0kts
28-Jun-20 08:44 45.587235 -122.582947 211 27ft 0kts
28-Jun-20 08:45 45.587235 -122.582947 211 27ft 0kts
28-Jun-20 08:46 45.587235 -122.582947 211 27ft 0kts
28-Jun-20 08:47 45.587235 -122.582947 211 27ft 0kts
28-Jun-20 08:48 45.587235 -122.582947 211 27ft 0kts
28-Jun-20 08:49 45.587235 -122.582947 211 27ft 0kts
28-Jun-20 08:50 45.587235 -122.582947 211 27ft 0kts
28-Jun-20 08:51 45.586659 -122.580661 108 27ft 16kts
28-Jun-20 08:52 45.584767 -122.573190 120 30ft 37kts
28-Jun-20 08:53 45.582793 -122.567463 60 33ft 14kts
28-Jun-20 08:54 45.595284 -122.597061 294 843ft 160kts
28-Jun-20 08:55 45.619501 -122.670762 294 4233ft 232kts
28-Jun-20 08:56 45.666556 -122.690918 39 8235ft 247kts
28-Jun-20 08:57 45.710227 -122.637053 37 11905ft 236kts
28-Jun-20 08:58 45.736481 -122.605005 37 14065ft 230kts
28-Jun-20 08:59 45.773612 -122.599309 350 16478ft 217kts
28-Jun-20 09:00 45.816153 -122.609270 350 19085ft 209kts
28-Jun-20 09:01 45.868594 -122.621721 350 19986ft 275kts
28-Jun-20 09:02 45.937917 -122.638862 349 19964ft 330kts
28-Jun-20 09:03 46.015070 -122.658117 349 19964ft 351kts
28-Jun-20 09:04 46.094884 -122.677932 351 19961ft 351kts
28-Jun-20 09:05 46.180045 -122.694590 351 19973ft 338kts
28-Jun-20 09:06 46.250015 -122.708363 351 20003ft 339kts
28-Jun-20 09:07 46.314658 -122.721121 352 19399ft 335kts
28-Jun-20 09:08 46.380694 -122.724251 357 18395ft 338kts
28-Jun-20 09:09 46.452061 -122.726965 358 16870ft 332kts
28-Jun-20 09:10 46.521610 -122.729523 358 15342ft 323kts
28-Jun-20 09:11 46.586620 -122.731876 358 13823ft 306kts
28-Jun-20 09:12 46.648268 -122.734106 358 12364ft 302kts
28-Jun-20 09:13 46.716412 -122.736543 358 11989ft 298kts
28-Jun-20 09:14 46.780177 -122.736989 10 11931ft 298kts
28-Jun-20 09:15 46.839985 -122.672948 36 9983ft 274kts
28-Jun-20 09:16 46.886170 -122.610503 40 9986ft 278kts
28-Jun-20 09:17 46.928742 -122.549843 43 9547ft 273kts
28-Jun-20 09:18 46.968995 -122.488561 42 8210ft 262kts
28-Jun-20 09:19 47.004749 -122.449901 27 7131ft 240kts
28-Jun-20 09:20 47.037542 -122.422234 28 6025ft 237kts
28-Jun-20 09:21 47.070149 -122.394644 28 5992ft 242kts
28-Jun-20 09:22 47.111161 -122.359780 28 5991ft 240kts
28-Jun-20 09:23 47.147998 -122.341635 9 5517ft 235kts
28-Jun-20 09:24 47.179929 -122.334580 8 4388ft 235kts
28-Jun-20 09:25 47.218104 -122.326712 8 3991ft 215kts
28-Jun-20 09:26 47.256963 -122.318423 8 3917ft 205kts
28-Jun-20 09:27 47.308786 -122.318931 359 3013ft 173kts
28-Jun-20 09:28 47.350385 -122.318621 359 2267ft 127kts
28-Jun-20 09:29 47.385977 -122.318456 359 1483ft 116kts
28-Jun-20 09:30 47.415844 -122.318246 359 958ft 110kts
28-Jun-20 09:31 47.441398 -122.318027 359 492ft 99kts
28-Jun-20 09:32 47.453306 -122.317347 20 474ft 29kts
28-Jun-20 09:33 47.452345 -122.313554 180 474ft 48kts
28-Jun-20 09:34 47.440908 -122.313663 180 474ft 29kts
28-Jun-20 09:35 47.438624 -122.315461 232 474ft 6kts
28-Jun-20 09:37 47.438574 -122.315436 94 474ft 0kts
28-Jun-20 09:38 47.438574 -122.315436 94 474ft 0kts
28-Jun-20 09:39 47.438574 -122.315436 94 474ft 0kts

Navigation Log

Ident Type
Flight plan parsing failed, navigation log unavailable